createdAt,value
2018-06-28T00:02:27.596Z,1.23
2018-06-28T00:04:56.124Z,1.20
2018-06-28T00:07:25.352Z,1.40
2018-06-28T00:09:53.625Z,1.40
2018-06-28T00:12:21.824Z,1.30
2018-06-28T00:14:50.046Z,1.43
2018-06-28T00:17:18.892Z,1.17
2018-06-28T00:19:47.132Z,1.40
2018-06-28T00:22:16.271Z,1.20
2018-06-28T00:24:44.748Z,1.40
2018-06-28T00:27:13.011Z,1.27
2018-06-28T00:32:33.547Z,1.40
2018-06-28T00:35:02.651Z,1.23
2018-06-28T00:37:31.268Z,1.30
2018-06-28T00:39:59.950Z,1.50
2018-06-28T00:42:28.230Z,1.30
2018-06-28T00:44:56.560Z,1.53
2018-06-28T00:47:24.773Z,1.40
2018-06-28T00:49:53.056Z,1.47
2018-06-28T00:52:21.296Z,1.30
2018-06-28T00:54:49.523Z,1.30
2018-06-28T00:57:17.780Z,1.70
2018-06-28T00:59:46.017Z,1.40
2018-06-28T01:02:14.295Z,1.40
2018-06-28T01:04:42.582Z,1.70
2018-06-28T01:07:11.350Z,1.73
2018-06-28T01:09:39.562Z,1.40
2018-06-28T01:12:07.899Z,1.93
2018-06-28T01:14:36.139Z,1.63
2018-06-28T01:17:04.487Z,1.50
2018-06-28T01:19:32.721Z,1.63
2018-06-28T01:22:00.958Z,1.83
2018-06-28T01:24:29.411Z,1.40
2018-06-28T01:26:58.034Z,1.90
2018-06-28T01:29:26.242Z,1.77
2018-06-28T01:31:54.475Z,2.23
2018-06-28T01:34:22.875Z,1.97
2018-06-28T01:36:51.432Z,2.07
2018-06-28T01:39:20.772Z,2.00
2018-06-28T01:42:00.664Z,1.87
2018-06-28T01:44:28.911Z,1.83
2018-06-28T01:46:58.104Z,1.63
2018-06-28T01:49:27.005Z,1.67
2018-06-28T01:51:55.245Z,1.73
2018-06-28T01:54:23.755Z,1.40
2018-06-28T01:56:52.039Z,2.00
2018-06-28T01:59:20.375Z,2.20
2018-06-28T02:01:48.563Z,1.63
2018-06-28T02:04:16.827Z,1.70
2018-06-28T02:06:45.052Z,2.00
2018-06-28T02:09:13.623Z,1.90
2018-06-28T02:11:41.645Z,1.90
2018-06-28T02:14:09.929Z,1.77
2018-06-28T02:16:38.190Z,1.77
2018-06-28T02:19:06.475Z,1.90
2018-06-28T02:21:34.759Z,1.90
2018-06-28T02:24:03.006Z,1.90
2018-06-28T02:26:31.616Z,1.80
2018-06-28T02:28:59.877Z,1.70
2018-06-28T02:31:28.503Z,2.27
2018-06-28T02:33:57.132Z,1.87
2018-06-28T02:36:25.569Z,1.73
2018-06-28T02:38:53.824Z,2.20
2018-06-28T02:41:22.075Z,1.87
2018-06-28T02:43:50.416Z,2.03
2018-06-28T02:46:18.669Z,2.10
2018-06-28T02:48:46.905Z,1.60
2018-06-28T02:51:15.144Z,1.97
2018-06-28T02:53:44.339Z,2.37
2018-06-28T02:56:13.447Z,2.13
2018-06-28T02:58:41.680Z,2.23
2018-06-28T03:01:09.896Z,1.90
2018-06-28T03:03:38.175Z,2.10
2018-06-28T03:06:06.151Z,2.10
2018-06-28T03:08:34.380Z,2.20
2018-06-28T03:11:02.638Z,2.33
2018-06-28T03:13:31.215Z,2.13
2018-06-28T03:15:59.539Z,2.20
2018-06-28T03:18:27.805Z,2.30
2018-06-28T03:20:56.004Z,2.30
2018-06-28T03:23:24.219Z,2.53
2018-06-28T03:25:52.452Z,2.10
2018-06-28T03:28:21.619Z,2.30
2018-06-28T03:30:50.234Z,2.30
2018-06-28T03:33:18.451Z,2.63
2018-06-28T03:35:46.722Z,2.40
2018-06-28T03:38:14.954Z,2.30
2018-06-28T03:40:42.935Z,2.47
2018-06-28T03:43:11.167Z,2.27
2018-06-28T03:45:39.400Z,2.40
2018-06-28T03:50:42.321Z,2.30
2018-06-28T03:53:10.571Z,2.20
2018-06-28T03:55:38.757Z,2.00
2018-06-28T03:58:06.987Z,2.10
2018-06-28T04:00:35.211Z,1.97
2018-06-28T04:03:03.471Z,2.20
2018-06-28T04:05:31.721Z,2.10
2018-06-28T04:08:00.000Z,1.97
2018-06-28T04:10:28.239Z,2.17
2018-06-28T04:12:56.507Z,2.20
2018-06-28T04:15:24.749Z,2.30
2018-06-28T04:17:52.985Z,2.10
2018-06-28T04:20:21.220Z,2.30
2018-06-28T04:22:50.296Z,2.17
2018-06-28T04:25:18.524Z,2.30
2018-06-28T04:27:46.720Z,2.10
2018-06-28T04:30:15.311Z,2.20
2018-06-28T04:32:43.786Z,1.90
2018-06-28T04:35:12.011Z,2.17
2018-06-28T04:37:40.707Z,2.00
2018-06-28T04:40:08.973Z,2.07
2018-06-28T04:42:37.204Z,2.10
2018-06-28T04:45:05.579Z,1.80
2018-06-28T04:47:33.775Z,1.60
2018-06-28T04:50:02.049Z,1.98
2018-06-28T04:52:30.460Z,1.50
2018-06-28T04:54:58.722Z,2.15
2018-06-28T04:57:26.939Z,1.72
2018-06-28T04:59:55.173Z,1.70
2018-06-28T05:02:23.455Z,1.57
2018-06-28T05:04:51.659Z,1.70
2018-06-28T05:07:19.884Z,1.62
2018-06-28T05:09:48.118Z,1.47
2018-06-28T05:12:16.387Z,1.98
2018-06-28T05:14:44.674Z,1.70
2018-06-28T05:17:12.891Z,1.90
2018-06-28T05:19:41.455Z,1.70
2018-06-28T05:22:09.740Z,1.65
2018-06-28T05:24:37.976Z,1.60
2018-06-28T05:27:06.231Z,1.77
2018-06-28T05:29:34.750Z,1.60
2018-06-28T05:32:03.763Z,1.80
2018-06-28T05:34:32.131Z,1.77
2018-06-28T05:37:00.300Z,1.50
2018-06-28T05:39:28.489Z,2.05
2018-06-28T05:41:56.708Z,1.70
2018-06-28T05:44:25.023Z,1.47
2018-06-28T05:46:53.228Z,1.30
2018-06-28T05:49:21.499Z,1.70
2018-06-28T05:51:49.759Z,1.50
2018-06-28T05:54:18.170Z,1.50
2018-06-28T05:56:46.242Z,1.80
2018-06-28T05:59:14.988Z,1.47
2018-06-28T06:01:43.276Z,1.60
2018-06-28T06:04:11.519Z,1.80
2018-06-28T06:06:39.887Z,1.55
2018-06-28T06:09:09.247Z,1.67
2018-06-28T06:11:37.506Z,1.72
2018-06-28T06:14:05.856Z,1.77
2018-06-28T06:16:34.168Z,1.57
2018-06-28T06:19:02.378Z,1.60
2018-06-28T06:21:30.623Z,1.67
2018-06-28T06:23:58.894Z,1.50
2018-06-28T06:26:27.175Z,1.60
2018-06-28T06:28:55.411Z,1.62
2018-06-28T06:31:23.846Z,1.55
2018-06-28T06:33:52.075Z,1.72
2018-06-28T06:36:21.211Z,1.90
2018-06-28T06:38:49.989Z,1.98
2018-06-28T06:41:18.101Z,1.50
2018-06-28T06:43:46.330Z,1.75
2018-06-28T06:46:14.577Z,1.35
2018-06-28T06:48:42.821Z,2.10
2018-06-28T06:51:11.024Z,1.92
2018-06-28T06:53:39.235Z,1.92
2018-06-28T06:56:07.563Z,1.90
2018-06-28T06:58:35.784Z,1.90
2018-06-28T07:01:04.114Z,1.90
2018-06-28T07:03:32.686Z,1.45
2018-06-28T07:06:00.948Z,1.80
2018-06-28T07:08:29.447Z,2.02
2018-06-28T07:10:57.676Z,1.82
2018-06-28T07:13:25.953Z,1.85
2018-06-28T07:15:54.202Z,1.80
2018-06-28T07:18:22.480Z,1.72
2018-06-28T07:20:50.792Z,2.00
2018-06-28T07:23:19.085Z,1.72
2018-06-28T07:25:47.302Z,1.80
2018-06-28T07:28:15.540Z,1.70
2018-06-28T07:30:43.758Z,1.87
2018-06-28T07:33:12.545Z,2.15
2018-06-28T07:35:40.763Z,1.87
2018-06-28T07:38:08.992Z,1.82
2018-06-28T07:40:37.224Z,1.87
2018-06-28T07:43:05.610Z,1.98
2018-06-28T07:45:33.856Z,1.47
2018-06-28T07:48:02.104Z,2.10
2018-06-28T07:50:30.371Z,2.22
2018-06-28T07:52:58.618Z,1.80
2018-06-28T07:55:26.874Z,2.00
2018-06-28T07:57:55.755Z,1.75
2018-06-28T08:00:24.019Z,1.67
2018-06-28T08:02:52.965Z,1.80
2018-06-28T08:05:21.204Z,2.08
2018-06-28T08:07:49.438Z,1.90
2018-06-28T08:10:17.714Z,1.95
2018-06-28T08:12:46.208Z,2.40
2018-06-28T08:15:15.167Z,1.95
2018-06-28T08:17:43.510Z,2.00
2018-06-28T08:20:12.110Z,1.80
2018-06-28T08:22:44.352Z,2.05
2018-06-28T08:25:12.597Z,1.95
2018-06-28T08:27:40.844Z,2.30
2018-06-28T08:30:09.116Z,1.60
2018-06-28T08:32:37.317Z,1.90
2018-06-28T08:35:05.988Z,2.00
2018-06-28T08:37:34.276Z,1.85
2018-06-28T08:40:02.519Z,2.00
2018-06-28T08:42:30.724Z,1.70
2018-06-28T08:44:58.931Z,2.10
2018-06-28T08:47:27.188Z,1.90
2018-06-28T08:49:55.424Z,1.72
2018-06-28T08:52:24.861Z,2.30
2018-06-28T08:54:53.115Z,1.92
2018-06-28T08:57:21.364Z,2.10
2018-06-28T08:59:50.088Z,2.00
2018-06-28T09:02:18.339Z,1.70
2018-06-28T09:04:46.623Z,1.70
2018-06-28T09:07:14.858Z,1.82
2018-06-28T09:09:43.049Z,2.10
2018-06-28T09:12:11.286Z,1.70
2018-06-28T09:14:39.515Z,1.90
2018-06-28T09:17:07.702Z,2.00
2018-06-28T09:19:35.914Z,2.20
2018-06-28T09:22:04.905Z,2.20
2018-06-28T09:24:33.139Z,2.08
2018-06-28T09:27:01.357Z,2.05
2018-06-28T09:29:29.612Z,2.30
2018-06-28T09:31:57.828Z,2.33
2018-06-28T09:34:26.775Z,2.02
2018-06-28T09:36:54.989Z,2.17
2018-06-28T09:39:23.601Z,2.10
2018-06-28T09:41:53.791Z,2.40
2018-06-28T09:44:22.263Z,2.17
2018-06-28T09:46:50.488Z,2.40
2018-06-28T09:49:18.864Z,2.60
2018-06-28T09:51:47.075Z,2.27
2018-06-28T09:54:15.307Z,2.05
2018-06-28T09:56:43.583Z,2.22
2018-06-28T09:59:11.830Z,2.20
2018-06-28T10:01:40.247Z,1.82
2018-06-28T10:04:08.512Z,2.12
2018-06-28T10:06:36.755Z,1.87
2018-06-28T10:09:07.008Z,2.15
2018-06-28T10:11:35.699Z,2.10
2018-06-28T10:14:03.907Z,2.30
2018-06-28T10:16:32.372Z,2.00
2018-06-28T10:19:00.663Z,2.15
2018-06-28T10:21:28.909Z,1.90
2018-06-28T10:23:57.408Z,1.80
2018-06-28T10:26:25.659Z,2.00
2018-06-28T10:28:54.262Z,1.90
2018-06-28T10:31:23.220Z,2.00
2018-06-28T10:33:51.430Z,1.98
2018-06-28T10:36:19.927Z,2.15
2018-06-28T10:38:48.167Z,2.00
2018-06-28T10:41:16.395Z,2.45
2018-06-28T10:43:44.635Z,1.92
2018-06-28T10:46:12.904Z,2.00
2018-06-28T10:48:43.024Z,2.10
2018-06-28T10:51:11.362Z,1.90
2018-06-28T10:53:39.579Z,1.67
2018-06-28T10:56:07.800Z,1.70
2018-06-28T10:58:36.031Z,2.08
2018-06-28T11:01:04.263Z,1.90
2018-06-28T11:03:32.504Z,1.87
2018-06-28T11:06:00.750Z,2.27
2018-06-28T11:08:29.933Z,1.80
2018-06-28T11:10:58.210Z,2.17
2018-06-28T11:13:26.451Z,2.05
2018-06-28T11:15:54.754Z,2.00
2018-06-28T11:18:23.037Z,2.22
2018-06-28T11:20:51.293Z,1.87
2018-06-28T11:23:19.588Z,1.95
2018-06-28T11:25:47.796Z,1.98
2018-06-28T11:28:16.128Z,1.65
2018-06-28T11:30:44.395Z,1.75
2018-06-28T11:33:12.643Z,2.20
2018-06-28T11:35:40.929Z,2.42
2018-06-28T11:38:09.399Z,1.95
2018-06-28T11:40:37.722Z,2.37
2018-06-28T11:43:05.970Z,2.27
2018-06-28T11:45:34.227Z,2.22
2018-06-28T11:48:02.916Z,2.15
2018-06-28T11:50:31.223Z,2.15
2018-06-28T11:52:59.518Z,2.20
2018-06-28T11:55:27.743Z,2.33
2018-06-28T11:57:55.975Z,2.08
2018-06-28T12:00:24.205Z,2.12
2018-06-28T12:02:52.895Z,2.25
2018-06-28T12:05:21.250Z,1.90
2018-06-28T12:07:49.482Z,2.12
2018-06-28T12:10:17.760Z,2.05
2018-06-28T12:12:45.991Z,1.92
2018-06-28T12:15:14.383Z,2.22
2018-06-28T12:17:42.571Z,1.80
2018-06-28T12:20:11.100Z,2.12
2018-06-28T12:22:41.179Z,1.90
2018-06-28T12:25:09.424Z,2.00
2018-06-28T12:27:37.676Z,2.15
2018-06-28T12:30:05.928Z,2.05
2018-06-28T12:32:34.219Z,2.40
2018-06-28T12:35:02.684Z,2.20
2018-06-28T12:37:30.915Z,2.42
2018-06-28T12:39:59.219Z,1.95
2018-06-28T12:42:27.490Z,2.22
2018-06-28T12:44:55.455Z,2.17
2018-06-28T12:47:38.407Z,2.05
2018-06-28T12:50:07.467Z,2.52
2018-06-28T12:52:44.609Z,2.33
2018-06-28T12:55:14.891Z,1.90
2018-06-28T12:57:44.959Z,2.30
2018-06-28T13:00:13.702Z,2.52
2018-06-28T13:02:43.316Z,2.20
2018-06-28T13:05:12.507Z,2.10
2018-06-28T13:07:41.303Z,2.22
2018-06-28T13:10:10.965Z,2.77
2018-06-28T13:12:39.919Z,2.22
2018-06-28T13:15:09.717Z,2.15
2018-06-28T13:17:39.117Z,2.12
2018-06-28T13:20:08.151Z,1.62
2018-06-28T13:22:36.285Z,1.90
2018-06-28T13:25:05.524Z,1.85
2018-06-28T13:27:33.764Z,1.80
2018-06-28T13:30:04.791Z,1.85
2018-06-28T13:32:33.015Z,1.87
2018-06-28T13:35:01.233Z,1.70
2018-06-28T13:37:29.472Z,1.75
2018-06-28T13:39:57.684Z,1.85
2018-06-28T13:42:25.928Z,1.80
2018-06-28T13:44:54.223Z,1.90
2018-06-28T13:47:22.475Z,1.70
2018-06-28T13:49:50.714Z,2.20
2018-06-28T13:52:18.914Z,1.90
2018-06-28T13:54:47.186Z,2.02
2018-06-28T13:57:15.499Z,1.67
2018-06-28T13:59:43.747Z,1.52
2018-06-28T14:02:11.971Z,1.52
2018-06-28T14:04:40.199Z,1.70
2018-06-28T14:07:08.495Z,1.47
2018-06-28T14:09:36.721Z,1.77
2018-06-28T14:12:05.279Z,1.70
2018-06-28T14:14:33.497Z,1.62
2018-06-28T14:17:01.720Z,1.60
2018-06-28T14:19:30.282Z,1.90
2018-06-28T14:21:58.559Z,1.87
2018-06-28T14:24:26.826Z,2.08
2018-06-28T14:26:55.048Z,1.85
2018-06-28T14:29:23.318Z,2.05
2018-06-28T14:31:51.588Z,1.90
2018-06-28T14:34:21.431Z,1.77
2018-06-28T14:36:49.639Z,1.80
2018-06-28T14:39:17.942Z,1.70
2018-06-28T14:41:46.236Z,1.72
2018-06-28T14:44:14.476Z,1.80
2018-06-28T14:46:42.697Z,1.75
2018-06-28T14:49:10.910Z,1.85
2018-06-28T14:51:39.178Z,1.72
2018-06-28T14:54:07.390Z,1.70
2018-06-28T14:56:36.027Z,1.80
2018-06-28T14:59:04.313Z,1.70
2018-06-28T15:01:32.892Z,1.95
2018-06-28T15:04:01.153Z,2.08
2018-06-28T15:06:29.419Z,1.60
2018-06-28T15:08:57.655Z,2.00
2018-06-28T15:11:25.876Z,1.90
2018-06-28T15:13:54.460Z,2.02
2018-06-28T15:16:22.707Z,1.67
2018-06-28T15:18:51.011Z,1.90
2018-06-28T15:21:19.286Z,1.70
2018-06-28T15:23:47.497Z,2.12
2018-06-28T15:26:15.699Z,1.55
2018-06-28T15:28:43.947Z,1.80
2018-06-28T15:31:12.221Z,2.10
2018-06-28T15:33:40.835Z,1.60
2018-06-28T15:36:09.033Z,1.70
2018-06-28T15:38:37.288Z,1.87
2018-06-28T15:41:05.572Z,1.70
2018-06-28T15:43:33.795Z,1.95
2018-06-28T15:46:02.154Z,1.80
2018-06-28T15:48:30.423Z,1.87
2018-06-28T15:51:03.591Z,1.90
2018-06-28T15:53:31.865Z,1.82
2018-06-28T15:56:00.108Z,2.05
2018-06-28T15:58:29.047Z,2.08
2018-06-28T16:00:57.271Z,2.30
2018-06-28T16:03:25.530Z,2.10
2018-06-28T16:05:53.744Z,1.80
2018-06-28T16:08:22.030Z,1.85
2018-06-28T16:10:50.239Z,2.05
2018-06-28T16:13:18.464Z,1.65
2018-06-28T16:15:46.693Z,1.80
2018-06-28T16:18:14.892Z,1.67
2018-06-28T16:20:43.322Z,1.70
2018-06-28T16:23:11.555Z,1.75
2018-06-28T16:25:39.967Z,2.17
2018-06-28T16:28:08.319Z,1.72
2018-06-28T16:30:36.682Z,1.95
2018-06-28T16:33:04.952Z,1.62
2018-06-28T16:35:33.212Z,1.70
2018-06-28T16:38:01.446Z,2.20
2018-06-28T16:40:29.731Z,1.70
2018-06-28T16:42:58.999Z,1.82
2018-06-28T16:45:27.220Z,1.85
2018-06-28T16:47:55.464Z,1.80
2018-06-28T16:50:24.258Z,2.20
2018-06-28T16:52:52.475Z,2.27
2018-06-28T16:55:20.743Z,1.82
2018-06-28T16:57:50.293Z,1.90
2018-06-28T17:00:18.515Z,1.72
2018-06-28T17:02:48.185Z,2.10
2018-06-28T17:05:16.495Z,2.00
2018-06-28T17:07:44.833Z,1.95
2018-06-28T17:10:17.083Z,1.90
2018-06-28T17:12:45.366Z,1.87
2018-06-28T17:15:14.055Z,1.95
2018-06-28T17:17:42.252Z,2.20
2018-06-28T17:20:10.545Z,1.67
2018-06-28T17:22:38.813Z,1.40
2018-06-28T17:25:07.079Z,1.80
2018-06-28T17:27:35.333Z,1.65
2018-06-28T17:30:03.700Z,2.00
2018-06-28T17:32:31.902Z,1.87
2018-06-28T17:35:00.163Z,1.75
2018-06-28T17:37:28.556Z,1.72
2018-06-28T17:39:56.810Z,1.52
2018-06-28T17:42:25.047Z,1.85
2018-06-28T17:44:53.243Z,1.80
2018-06-28T17:47:21.479Z,1.60
2018-06-28T17:49:49.707Z,1.80
2018-06-28T17:52:17.968Z,1.90
2018-06-28T17:54:46.208Z,1.92
2018-06-28T17:57:14.451Z,1.60
2018-06-28T17:59:42.714Z,1.77
2018-06-28T18:02:10.927Z,2.10
2018-06-28T18:04:39.172Z,1.92
2018-06-28T18:07:07.439Z,2.10
2018-06-28T18:09:35.697Z,1.92
2018-06-28T18:12:03.906Z,1.60
2018-06-28T18:14:32.292Z,1.72
2018-06-28T18:17:00.521Z,2.10
2018-06-28T18:19:28.808Z,1.92
2018-06-28T18:21:57.231Z,2.15
2018-06-28T18:24:26.316Z,1.95
2018-06-28T18:26:54.802Z,1.95
2018-06-28T18:29:23.128Z,1.80
2018-06-28T18:31:51.354Z,1.98
2018-06-28T18:34:19.567Z,1.80
2018-06-28T18:36:48.276Z,2.00
2018-06-28T18:39:16.795Z,1.60
2018-06-28T18:41:45.207Z,2.00
2018-06-28T18:44:13.974Z,2.00
2018-06-28T18:46:42.201Z,1.80
2018-06-28T18:49:11.029Z,2.00
2018-06-28T18:51:39.387Z,2.10
2018-06-28T18:54:07.755Z,2.02
2018-06-28T18:56:36.061Z,1.90
2018-06-28T18:59:05.061Z,2.58
2018-06-28T19:01:33.313Z,2.90
2018-06-28T19:04:01.606Z,2.37
2018-06-28T19:06:30.025Z,2.22
2018-06-28T19:08:58.371Z,1.95
2018-06-28T19:11:26.801Z,2.08
2018-06-28T19:14:00.670Z,1.90
2018-06-28T19:16:34.332Z,1.92
2018-06-28T19:19:02.614Z,2.10
2018-06-28T19:21:36.301Z,1.90
2018-06-28T19:24:05.620Z,2.22
2018-06-28T19:26:33.864Z,2.12
2018-06-28T19:29:07.653Z,2.10
2018-06-28T19:31:41.575Z,2.10
2018-06-28T19:34:10.647Z,2.00
2018-06-28T19:36:38.885Z,2.12
2018-06-28T19:39:13.734Z,2.10
2018-06-28T19:41:47.895Z,2.20
2018-06-28T19:44:16.135Z,2.35
2018-06-28T19:46:44.408Z,2.05
2018-06-28T19:49:18.184Z,2.25
2018-06-28T19:51:51.860Z,1.90
2018-06-28T19:54:20.356Z,2.10
2018-06-28T19:59:19.767Z,1.92
2018-06-28T20:01:53.502Z,2.58
2018-06-28T20:04:27.326Z,2.10
2018-06-28T20:06:55.587Z,2.05
2018-06-28T20:09:24.199Z,2.10
2018-06-28T20:11:52.158Z,1.90
2018-06-28T20:15:25.568Z,1.87
2018-06-28T20:18:01.309Z,1.85
2018-06-28T20:20:30.851Z,2.12
2018-06-28T20:22:59.116Z,2.10
2018-06-28T20:25:27.624Z,2.17
2018-06-28T20:28:01.320Z,2.15
2018-06-28T20:30:34.968Z,2.10
2018-06-28T20:33:08.663Z,2.00
2018-06-28T20:35:36.937Z,1.85
2018-06-28T20:38:05.114Z,1.85
2018-06-28T20:40:33.428Z,2.05
2018-06-28T20:43:02.076Z,1.90
2018-06-28T20:45:30.319Z,2.00
2018-06-28T20:47:58.650Z,2.22
2018-06-28T20:50:26.908Z,2.00
2018-06-28T20:52:55.162Z,1.90
2018-06-28T20:55:23.634Z,1.90
2018-06-28T20:57:51.877Z,2.00
2018-06-28T21:00:20.116Z,1.90
2018-06-28T21:02:48.359Z,2.00
2018-06-28T21:05:16.744Z,2.00
2018-06-28T21:07:45.463Z,2.27
2018-06-28T21:10:13.703Z,2.00
2018-06-28T21:12:41.938Z,1.90
2018-06-28T21:15:10.193Z,2.15
2018-06-28T21:17:38.484Z,2.33
2018-06-28T21:20:06.764Z,2.00
2018-06-28T21:22:35.041Z,2.15
2018-06-28T21:25:03.455Z,1.92
2018-06-28T21:27:31.749Z,2.27
2018-06-28T21:29:59.967Z,2.10
2018-06-28T21:32:28.201Z,2.10
2018-06-28T21:34:56.727Z,2.40
2018-06-28T21:37:24.972Z,2.40
2018-06-28T21:39:53.240Z,1.82
2018-06-28T21:42:21.467Z,2.12
2018-06-28T21:44:49.785Z,1.80
2018-06-28T21:47:18.047Z,2.12
2018-06-28T21:49:46.316Z,2.27
2018-06-28T21:52:14.552Z,2.30
2018-06-28T21:54:42.788Z,2.02
2018-06-28T21:57:11.035Z,2.02
2018-06-28T21:59:39.299Z,1.98
2018-06-28T22:02:07.492Z,2.25
2018-06-28T22:04:35.759Z,1.92
2018-06-28T22:07:03.973Z,2.37
2018-06-28T22:09:32.243Z,2.15
2018-06-28T22:12:00.795Z,2.25
2018-06-28T22:14:29.018Z,2.30
2018-06-28T22:16:57.512Z,2.40
2018-06-28T22:19:25.777Z,2.20
2018-06-28T22:21:54.195Z,2.05
2018-06-28T22:24:23.027Z,2.17
2018-06-28T22:26:51.288Z,2.12
2018-06-28T22:29:19.543Z,2.50
2018-06-28T22:31:47.815Z,2.27
2018-06-28T22:34:16.052Z,2.20
2018-06-28T22:36:44.278Z,2.47
2018-06-28T22:39:14.913Z,2.52
2018-06-28T22:41:43.507Z,2.00
2018-06-28T22:44:11.731Z,2.20
2018-06-28T22:46:39.969Z,2.37
2018-06-28T22:49:08.183Z,2.20
2018-06-28T22:51:36.371Z,2.52
2018-06-28T22:54:04.583Z,2.47
2018-06-28T22:56:32.816Z,2.37
2018-06-28T22:59:00.999Z,2.87
2018-06-28T23:01:29.209Z,2.47
2018-06-28T23:03:58.162Z,3.22
2018-06-28T23:06:27.873Z,2.45
2018-06-28T23:08:57.664Z,2.12
2018-06-28T23:11:25.856Z,2.35
2018-06-28T23:13:54.473Z,2.30
2018-06-28T23:16:22.749Z,2.42
2018-06-28T23:18:51.029Z,2.83
2018-06-28T23:21:22.334Z,2.62
2018-06-28T23:23:50.773Z,2.60
2018-06-28T23:26:18.988Z,2.85
2018-06-28T23:28:47.223Z,2.80
2018-06-28T23:31:15.517Z,2.83
2018-06-28T23:33:43.732Z,2.33
2018-06-28T23:36:11.947Z,2.62
2018-06-28T23:38:40.195Z,2.60
2018-06-28T23:41:08.406Z,2.70
2018-06-28T23:43:37.458Z,2.58
2018-06-28T23:46:05.726Z,2.58
2018-06-28T23:48:33.956Z,2.40
2018-06-28T23:51:02.295Z,2.52
2018-06-28T23:53:30.460Z,2.40
2018-06-28T23:55:58.638Z,2.27
2018-06-28T23:58:26.890Z,2.42
